sensor_id;sensor_type;location;lat;lon;timestamp;P1;durP1;ratioP1;P2;durP2;ratioP2
43744;SDS011;29359;53.048;8.732;2023-06-10T00:01:24;5.72;;;2.88;;
43744;SDS011;29359;53.048;8.732;2023-06-10T00:03:25;14.98;;;2.65;;
43744;SDS011;29359;53.048;8.732;2023-06-10T00:05:28;7.72;;;2.65;;
43744;SDS011;29359;53.048;8.732;2023-06-10T00:07:32;6.30;;;3.05;;
43744;SDS011;29359;53.048;8.732;2023-06-10T00:09:37;8.15;;;2.88;;
43744;SDS011;29359;53.048;8.732;2023-06-10T00:11:39;9.48;;;2.67;;
43744;SDS011;29359;53.048;8.732;2023-06-10T00:13:42;8.57;;;3.15;;
43744;SDS011;29359;53.048;8.732;2023-06-10T00:15:44;5.85;;;2.75;;
43744;SDS011;29359;53.048;8.732;2023-06-10T00:17:46;5.78;;;2.95;;
43744;SDS011;29359;53.048;8.732;2023-06-10T00:19:47;6.95;;;2.88;;
43744;SDS011;29359;53.048;8.732;2023-06-10T00:21:49;6.93;;;2.80;;
43744;SDS011;29359;53.048;8.732;2023-06-10T00:23:52;9.13;;;2.78;;
43744;SDS011;29359;53.048;8.732;2023-06-10T00:25:54;5.28;;;2.85;;
43744;SDS011;29359;53.048;8.732;2023-06-10T00:27:56;6.00;;;2.63;;
43744;SDS011;29359;53.048;8.732;2023-06-10T00:29:57;8.68;;;2.72;;
43744;SDS011;29359;53.048;8.732;2023-06-10T00:31:59;8.13;;;2.92;;
43744;SDS011;29359;53.048;8.732;2023-06-10T00:34:01;7.95;;;3.20;;
43744;SDS011;29359;53.048;8.732;2023-06-10T00:36:03;7.82;;;3.15;;
43744;SDS011;29359;53.048;8.732;2023-06-10T00:38:05;5.40;;;2.67;;
43744;SDS011;29359;53.048;8.732;2023-06-10T00:40:06;5.53;;;3.03;;
43744;SDS011;29359;53.048;8.732;2023-06-10T00:42:10;12.85;;;3.53;;
43744;SDS011;29359;53.048;8.732;2023-06-10T00:44:12;5.32;;;3.15;;
43744;SDS011;29359;53.048;8.732;2023-06-10T00:46:13;5.00;;;2.72;;
43744;SDS011;29359;53.048;8.732;2023-06-10T00:48:16;4.65;;;2.47;;
43744;SDS011;29359;53.048;8.732;2023-06-10T00:50:18;4.45;;;2.58;;
43744;SDS011;29359;53.048;8.732;2023-06-10T00:52:19;8.80;;;3.38;;
43744;SDS011;29359;53.048;8.732;2023-06-10T00:54:25;6.45;;;3.00;;
43744;SDS011;29359;53.048;8.732;2023-06-10T00:56:27;8.77;;;3.15;;
43744;SDS011;29359;53.048;8.732;2023-06-10T00:58:29;4.30;;;2.83;;
43744;SDS011;29359;53.048;8.732;2023-06-10T01:00:32;7.45;;;3.30;;
43744;SDS011;29359;53.048;8.732;2023-06-10T01:02:33;14.02;;;3.92;;
43744;SDS011;29359;53.048;8.732;2023-06-10T01:04:36;10.63;;;3.10;;
43744;SDS011;29359;53.048;8.732;2023-06-10T01:06:44;10.88;;;3.00;;
43744;SDS011;29359;53.048;8.732;2023-06-10T01:09:07;10.55;;;3.80;;
43744;SDS011;29359;53.048;8.732;2023-06-10T01:11:31;5.83;;;3.23;;
43744;SDS011;29359;53.048;8.732;2023-06-10T01:13:37;5.35;;;2.50;;
43744;SDS011;29359;53.048;8.732;2023-06-10T01:15:41;7.10;;;3.22;;
43744;SDS011;29359;53.048;8.732;2023-06-10T01:17:57;5.93;;;3.08;;
43744;SDS011;29359;53.048;8.732;2023-06-10T01:20:16;8.18;;;3.10;;
43744;SDS011;29359;53.048;8.732;2023-06-10T01:22:18;5.90;;;3.10;;
43744;SDS011;29359;53.048;8.732;2023-06-10T01:24:19;7.20;;;3.17;;
43744;SDS011;29359;53.048;8.732;2023-06-10T01:26:24;6.72;;;3.00;;
43744;SDS011;29359;53.048;8.732;2023-06-10T01:28:32;7.15;;;3.15;;
43744;SDS011;29359;53.048;8.732;2023-06-10T01:32:53;5.57;;;2.78;;
43744;SDS011;29359;53.048;8.732;2023-06-10T01:34:55;8.40;;;3.47;;
43744;SDS011;29359;53.048;8.732;2023-06-10T01:36:58;6.63;;;3.22;;
43744;SDS011;29359;53.048;8.732;2023-06-10T01:39:00;4.82;;;2.58;;
43744;SDS011;29359;53.048;8.732;2023-06-10T01:41:04;7.75;;;3.20;;
43744;SDS011;29359;53.048;8.732;2023-06-10T01:43:07;6.45;;;3.00;;
43744;SDS011;29359;53.048;8.732;2023-06-10T01:45:09;9.43;;;3.42;;
43744;SDS011;29359;53.048;8.732;2023-06-10T01:47:11;8.73;;;2.97;;
43744;SDS011;29359;53.048;8.732;2023-06-10T01:49:13;8.73;;;2.95;;
43744;SDS011;29359;53.048;8.732;2023-06-10T01:51:14;9.93;;;2.70;;
43744;SDS011;29359;53.048;8.732;2023-06-10T01:53:16;6.97;;;3.40;;
43744;SDS011;29359;53.048;8.732;2023-06-10T01:55:18;7.88;;;3.20;;
43744;SDS011;29359;53.048;8.732;2023-06-10T01:57:19;9.93;;;2.90;;
43744;SDS011;29359;53.048;8.732;2023-06-10T01:59:21;7.20;;;3.10;;
43744;SDS011;29359;53.048;8.732;2023-06-10T02:01:22;5.93;;;3.05;;
43744;SDS011;29359;53.048;8.732;2023-06-10T02:03:24;5.88;;;3.30;;
43744;SDS011;29359;53.048;8.732;2023-06-10T02:05:26;10.70;;;3.75;;
43744;SDS011;29359;53.048;8.732;2023-06-10T02:07:27;7.75;;;3.35;;
43744;SDS011;29359;53.048;8.732;2023-06-10T02:09:30;7.45;;;3.08;;
43744;SDS011;29359;53.048;8.732;2023-06-10T02:11:32;10.00;;;3.25;;
43744;SDS011;29359;53.048;8.732;2023-06-10T02:13:33;6.43;;;3.03;;
43744;SDS011;29359;53.048;8.732;2023-06-10T02:15:34;6.82;;;3.05;;
43744;SDS011;29359;53.048;8.732;2023-06-10T02:17:36;5.45;;;3.13;;
43744;SDS011;29359;53.048;8.732;2023-06-10T02:19:39;6.00;;;3.28;;
43744;SDS011;29359;53.048;8.732;2023-06-10T02:21:43;6.40;;;3.17;;
43744;SDS011;29359;53.048;8.732;2023-06-10T02:23:45;5.72;;;2.85;;
43744;SDS011;29359;53.048;8.732;2023-06-10T02:25:47;11.02;;;3.80;;
43744;SDS011;29359;53.048;8.732;2023-06-10T02:27:49;5.47;;;3.13;;
43744;SDS011;29359;53.048;8.732;2023-06-10T02:29:51;8.43;;;2.83;;
43744;SDS011;29359;53.048;8.732;2023-06-10T02:31:52;8.15;;;3.30;;
43744;SDS011;29359;53.048;8.732;2023-06-10T02:33:54;6.07;;;3.17;;
43744;SDS011;29359;53.048;8.732;2023-06-10T02:35:56;7.68;;;2.83;;
43744;SDS011;29359;53.048;8.732;2023-06-10T02:37:58;6.50;;;3.03;;
43744;SDS011;29359;53.048;8.732;2023-06-10T02:39:59;7.78;;;3.50;;
43744;SDS011;29359;53.048;8.732;2023-06-10T02:42:01;8.55;;;3.30;;
43744;SDS011;29359;53.048;8.732;2023-06-10T02:44:03;10.95;;;3.10;;
43744;SDS011;29359;53.048;8.732;2023-06-10T02:46:04;8.63;;;3.65;;
43744;SDS011;29359;53.048;8.732;2023-06-10T02:48:06;6.82;;;2.80;;
43744;SDS011;29359;53.048;8.732;2023-06-10T02:50:08;13.05;;;3.70;;
43744;SDS011;29359;53.048;8.732;2023-06-10T02:52:09;9.75;;;3.55;;
43744;SDS011;29359;53.048;8.732;2023-06-10T02:54:12;5.03;;;2.80;;
43744;SDS011;29359;53.048;8.732;2023-06-10T02:56:15;8.30;;;3.00;;
43744;SDS011;29359;53.048;8.732;2023-06-10T02:58:17;9.32;;;3.42;;
43744;SDS011;29359;53.048;8.732;2023-06-10T03:00:19;6.50;;;3.17;;
43744;SDS011;29359;53.048;8.732;2023-06-10T03:02:21;9.63;;;4.00;;
43744;SDS011;29359;53.048;8.732;2023-06-10T03:04:23;8.15;;;4.30;;
43744;SDS011;29359;53.048;8.732;2023-06-10T03:06:26;10.10;;;4.18;;
43744;SDS011;29359;53.048;8.732;2023-06-10T03:08:28;8.93;;;4.22;;
43744;SDS011;29359;53.048;8.732;2023-06-10T03:10:30;5.63;;;3.50;;
43744;SDS011;29359;53.048;8.732;2023-06-10T03:12:34;10.52;;;4.13;;
43744;SDS011;29359;53.048;8.732;2023-06-10T03:14:35;8.07;;;4.07;;
43744;SDS011;29359;53.048;8.732;2023-06-10T03:16:37;8.05;;;4.15;;
43744;SDS011;29359;53.048;8.732;2023-06-10T03:18:41;13.00;;;3.97;;
43744;SDS011;29359;53.048;8.732;2023-06-10T03:20:43;5.00;;;4.07;;
43744;SDS011;29359;53.048;8.732;2023-06-10T03:22:45;7.32;;;4.28;;
43744;SDS011;29359;53.048;8.732;2023-06-10T03:24:47;8.57;;;3.85;;
43744;SDS011;29359;53.048;8.732;2023-06-10T03:26:51;7.00;;;4.07;;
43744;SDS011;29359;53.048;8.732;2023-06-10T03:28:53;9.52;;;4.10;;
43744;SDS011;29359;53.048;8.732;2023-06-10T03:30:54;8.98;;;3.92;;
43744;SDS011;29359;53.048;8.732;2023-06-10T03:32:56;7.20;;;3.95;;
43744;SDS011;29359;53.048;8.732;2023-06-10T03:34:58;15.35;;;4.05;;
43744;SDS011;29359;53.048;8.732;2023-06-10T03:36:59;6.68;;;4.13;;
43744;SDS011;29359;53.048;8.732;2023-06-10T03:39:01;10.55;;;4.25;;
43744;SDS011;29359;53.048;8.732;2023-06-10T03:41:02;7.38;;;4.18;;
43744;SDS011;29359;53.048;8.732;2023-06-10T03:43:04;5.05;;;4.22;;
43744;SDS011;29359;53.048;8.732;2023-06-10T03:45:06;11.98;;;4.25;;
43744;SDS011;29359;53.048;8.732;2023-06-10T03:47:09;10.57;;;4.07;;
43744;SDS011;29359;53.048;8.732;2023-06-10T03:49:10;10.98;;;4.28;;
43744;SDS011;29359;53.048;8.732;2023-06-10T03:51:12;7.18;;;4.20;;
43744;SDS011;29359;53.048;8.732;2023-06-10T03:53:14;7.30;;;4.28;;
43744;SDS011;29359;53.048;8.732;2023-06-10T03:55:16;13.10;;;4.97;;
43744;SDS011;29359;53.048;8.732;2023-06-10T03:57:18;6.88;;;4.10;;
43744;SDS011;29359;53.048;8.732;2023-06-10T03:59:19;6.07;;;4.00;;
43744;SDS011;29359;53.048;8.732;2023-06-10T04:01:21;8.45;;;4.70;;
43744;SDS011;29359;53.048;8.732;2023-06-10T04:03:24;4.43;;;3.80;;
43744;SDS011;29359;53.048;8.732;2023-06-10T04:05:27;8.38;;;4.00;;
43744;SDS011;29359;53.048;8.732;2023-06-10T04:07:30;6.80;;;3.92;;
43744;SDS011;29359;53.048;8.732;2023-06-10T04:09:32;8.95;;;3.97;;
43744;SDS011;29359;53.048;8.732;2023-06-10T04:11:33;10.88;;;4.50;;
43744;SDS011;29359;53.048;8.732;2023-06-10T04:13:35;13.15;;;4.75;;
43744;SDS011;29359;53.048;8.732;2023-06-10T04:15:37;7.10;;;4.07;;
43744;SDS011;29359;53.048;8.732;2023-06-10T04:17:39;9.05;;;4.00;;
43744;SDS011;29359;53.048;8.732;2023-06-10T04:19:41;9.60;;;4.15;;
43744;SDS011;29359;53.048;8.732;2023-06-10T04:21:42;7.95;;;3.80;;
43744;SDS011;29359;53.048;8.732;2023-06-10T04:23:44;8.10;;;3.75;;
43744;SDS011;29359;53.048;8.732;2023-06-10T04:25:46;7.35;;;3.60;;
43744;SDS011;29359;53.048;8.732;2023-06-10T04:27:48;6.25;;;4.28;;
43744;SDS011;29359;53.048;8.732;2023-06-10T04:29:49;9.48;;;4.70;;
43744;SDS011;29359;53.048;8.732;2023-06-10T04:31:51;7.10;;;3.55;;
43744;SDS011;29359;53.048;8.732;2023-06-10T04:33:52;11.35;;;3.97;;
43744;SDS011;29359;53.048;8.732;2023-06-10T04:35:54;7.70;;;3.75;;
43744;SDS011;29359;53.048;8.732;2023-06-10T04:37:56;7.10;;;3.70;;
43744;SDS011;29359;53.048;8.732;2023-06-10T04:39:57;8.02;;;3.63;;
43744;SDS011;29359;53.048;8.732;2023-06-10T04:42:00;7.75;;;3.78;;
43744;SDS011;29359;53.048;8.732;2023-06-10T04:44:02;5.13;;;3.30;;
43744;SDS011;29359;53.048;8.732;2023-06-10T04:46:04;12.13;;;3.53;;
43744;SDS011;29359;53.048;8.732;2023-06-10T04:48:09;7.68;;;3.08;;
43744;SDS011;29359;53.048;8.732;2023-06-10T04:50:11;7.90;;;3.50;;
43744;SDS011;29359;53.048;8.732;2023-06-10T04:52:13;9.43;;;3.85;;
43744;SDS011;29359;53.048;8.732;2023-06-10T04:54:18;7.63;;;3.67;;
43744;SDS011;29359;53.048;8.732;2023-06-10T04:56:20;8.45;;;3.50;;
43744;SDS011;29359;53.048;8.732;2023-06-10T04:58:21;9.68;;;4.00;;
43744;SDS011;29359;53.048;8.732;2023-06-10T05:00:23;6.68;;;3.75;;
43744;SDS011;29359;53.048;8.732;2023-06-10T05:02:24;9.30;;;3.75;;
43744;SDS011;29359;53.048;8.732;2023-06-10T05:04:26;4.60;;;3.50;;
43744;SDS011;29359;53.048;8.732;2023-06-10T05:06:28;13.18;;;3.80;;
43744;SDS011;29359;53.048;8.732;2023-06-10T05:08:29;8.07;;;3.72;;
43744;SDS011;29359;53.048;8.732;2023-06-10T05:10:31;9.35;;;4.15;;
43744;SDS011;29359;53.048;8.732;2023-06-10T05:12:33;8.65;;;4.43;;
43744;SDS011;29359;53.048;8.732;2023-06-10T05:14:34;7.57;;;4.40;;
43744;SDS011;29359;53.048;8.732;2023-06-10T05:16:36;9.73;;;5.13;;
43744;SDS011;29359;53.048;8.732;2023-06-10T05:18:37;5.60;;;4.00;;
43744;SDS011;29359;53.048;8.732;2023-06-10T05:20:39;9.70;;;4.95;;
43744;SDS011;29359;53.048;8.732;2023-06-10T05:22:40;8.05;;;5.32;;
43744;SDS011;29359;53.048;8.732;2023-06-10T05:24:42;6.95;;;4.25;;
43744;SDS011;29359;53.048;8.732;2023-06-10T05:26:44;8.20;;;3.58;;
43744;SDS011;29359;53.048;8.732;2023-06-10T05:28:46;11.55;;;4.20;;
43744;SDS011;29359;53.048;8.732;2023-06-10T05:30:48;10.80;;;4.28;;
43744;SDS011;29359;53.048;8.732;2023-06-10T05:32:51;9.93;;;3.85;;
43744;SDS011;29359;53.048;8.732;2023-06-10T05:34:53;6.47;;;3.55;;
43744;SDS011;29359;53.048;8.732;2023-06-10T05:36:54;11.32;;;3.90;;
43744;SDS011;29359;53.048;8.732;2023-06-10T05:38:56;7.80;;;4.35;;
43744;SDS011;29359;53.048;8.732;2023-06-10T05:40:57;7.93;;;3.80;;
43744;SDS011;29359;53.048;8.732;2023-06-10T05:43:00;8.13;;;3.53;;
43744;SDS011;29359;53.048;8.732;2023-06-10T05:45:02;7.03;;;4.38;;
43744;SDS011;29359;53.048;8.732;2023-06-10T05:47:04;6.60;;;3.67;;
43744;SDS011;29359;53.048;8.732;2023-06-10T05:49:06;6.82;;;3.58;;
43744;SDS011;29359;53.048;8.732;2023-06-10T05:51:07;5.70;;;3.90;;
43744;SDS011;29359;53.048;8.732;2023-06-10T05:53:09;8.55;;;3.60;;
43744;SDS011;29359;53.048;8.732;2023-06-10T05:55:16;4.68;;;3.72;;
43744;SDS011;29359;53.048;8.732;2023-06-10T05:57:18;6.28;;;3.78;;
43744;SDS011;29359;53.048;8.732;2023-06-10T05:59:19;9.98;;;4.28;;
43744;SDS011;29359;53.048;8.732;2023-06-10T06:01:21;6.47;;;3.80;;
43744;SDS011;29359;53.048;8.732;2023-06-10T06:03:23;6.80;;;3.70;;
43744;SDS011;29359;53.048;8.732;2023-06-10T06:05:24;5.90;;;4.18;;
43744;SDS011;29359;53.048;8.732;2023-06-10T06:07:26;8.15;;;3.20;;
43744;SDS011;29359;53.048;8.732;2023-06-10T06:09:28;10.15;;;3.70;;
43744;SDS011;29359;53.048;8.732;2023-06-10T06:11:29;8.02;;;3.97;;
43744;SDS011;29359;53.048;8.732;2023-06-10T06:13:31;6.57;;;3.88;;
43744;SDS011;29359;53.048;8.732;2023-06-10T06:15:32;8.13;;;3.80;;
43744;SDS011;29359;53.048;8.732;2023-06-10T06:17:34;8.73;;;4.03;;
43744;SDS011;29359;53.048;8.732;2023-06-10T06:19:35;7.38;;;3.78;;
43744;SDS011;29359;53.048;8.732;2023-06-10T06:21:37;8.85;;;4.10;;
43744;SDS011;29359;53.048;8.732;2023-06-10T06:23:38;20.88;;;4.10;;
43744;SDS011;29359;53.048;8.732;2023-06-10T06:25:40;6.55;;;3.50;;
43744;SDS011;29359;53.048;8.732;2023-06-10T06:27:42;7.97;;;3.67;;
43744;SDS011;29359;53.048;8.732;2023-06-10T06:29:43;6.15;;;3.90;;
43744;SDS011;29359;53.048;8.732;2023-06-10T06:31:45;8.73;;;3.60;;
43744;SDS011;29359;53.048;8.732;2023-06-10T06:33:47;9.73;;;3.67;;
43744;SDS011;29359;53.048;8.732;2023-06-10T06:35:49;6.32;;;4.18;;
43744;SDS011;29359;53.048;8.732;2023-06-10T06:37:50;6.70;;;4.43;;
43744;SDS011;29359;53.048;8.732;2023-06-10T06:39:52;7.95;;;4.15;;
43744;SDS011;29359;53.048;8.732;2023-06-10T06:41:54;9.93;;;4.32;;
43744;SDS011;29359;53.048;8.732;2023-06-10T06:43:56;7.05;;;4.00;;
43744;SDS011;29359;53.048;8.732;2023-06-10T06:45:57;13.57;;;4.47;;
43744;SDS011;29359;53.048;8.732;2023-06-10T06:47:59;10.23;;;4.60;;
43744;SDS011;29359;53.048;8.732;2023-06-10T06:50:01;8.35;;;4.63;;
43744;SDS011;29359;53.048;8.732;2023-06-10T06:52:03;8.25;;;4.03;;
43744;SDS011;29359;53.048;8.732;2023-06-10T06:54:05;12.82;;;4.32;;
43744;SDS011;29359;53.048;8.732;2023-06-10T06:56:06;9.93;;;4.68;;
43744;SDS011;29359;53.048;8.732;2023-06-10T06:58:08;11.80;;;3.60;;
43744;SDS011;29359;53.048;8.732;2023-06-10T07:00:10;10.50;;;3.70;;
43744;SDS011;29359;53.048;8.732;2023-06-10T07:02:11;7.35;;;3.50;;
43744;SDS011;29359;53.048;8.732;2023-06-10T07:04:14;7.30;;;3.47;;
43744;SDS011;29359;53.048;8.732;2023-06-10T07:06:16;7.97;;;3.38;;
43744;SDS011;29359;53.048;8.732;2023-06-10T07:08:18;8.68;;;3.88;;
43744;SDS011;29359;53.048;8.732;2023-06-10T07:10:20;6.97;;;3.53;;
43744;SDS011;29359;53.048;8.732;2023-06-10T07:12:24;6.50;;;3.58;;
43744;SDS011;29359;53.048;8.732;2023-06-10T07:14:26;10.52;;;5.47;;
43744;SDS011;29359;53.048;8.732;2023-06-10T07:16:27;10.23;;;3.92;;
43744;SDS011;29359;53.048;8.732;2023-06-10T07:18:29;8.18;;;3.22;;
43744;SDS011;29359;53.048;8.732;2023-06-10T07:20:31;9.30;;;3.78;;
43744;SDS011;29359;53.048;8.732;2023-06-10T07:22:32;9.25;;;4.30;;
43744;SDS011;29359;53.048;8.732;2023-06-10T07:24:34;6.03;;;3.42;;
43744;SDS011;29359;53.048;8.732;2023-06-10T07:26:36;9.38;;;3.95;;
43744;SDS011;29359;53.048;8.732;2023-06-10T07:28:37;9.48;;;3.33;;
43744;SDS011;29359;53.048;8.732;2023-06-10T07:30:39;9.73;;;3.50;;
43744;SDS011;29359;53.048;8.732;2023-06-10T07:32:40;5.95;;;3.70;;
43744;SDS011;29359;53.048;8.732;2023-06-10T07:34:42;7.22;;;3.90;;
43744;SDS011;29359;53.048;8.732;2023-06-10T07:36:44;10.32;;;3.30;;
43744;SDS011;29359;53.048;8.732;2023-06-10T07:38:46;5.15;;;3.10;;
43744;SDS011;29359;53.048;8.732;2023-06-10T07:40:47;6.63;;;3.05;;
43744;SDS011;29359;53.048;8.732;2023-06-10T07:42:52;6.72;;;3.65;;
43744;SDS011;29359;53.048;8.732;2023-06-10T07:44:59;7.88;;;3.38;;
43744;SDS011;29359;53.048;8.732;2023-06-10T07:47:00;6.13;;;3.75;;
43744;SDS011;29359;53.048;8.732;2023-06-10T07:49:02;8.98;;;3.58;;
43744;SDS011;29359;53.048;8.732;2023-06-10T07:51:03;5.57;;;3.10;;
43744;SDS011;29359;53.048;8.732;2023-06-10T07:53:05;8.85;;;3.53;;
43744;SDS011;29359;53.048;8.732;2023-06-10T07:55:07;9.25;;;3.35;;
43744;SDS011;29359;53.048;8.732;2023-06-10T07:57:09;4.18;;;3.00;;
43744;SDS011;29359;53.048;8.732;2023-06-10T07:59:11;6.07;;;3.30;;
43744;SDS011;29359;53.048;8.732;2023-06-10T08:01:12;10.40;;;3.17;;
43744;SDS011;29359;53.048;8.732;2023-06-10T08:03:14;4.85;;;3.40;;
43744;SDS011;29359;53.048;8.732;2023-06-10T08:05:15;7.90;;;3.88;;
43744;SDS011;29359;53.048;8.732;2023-06-10T08:07:17;7.13;;;4.10;;
43744;SDS011;29359;53.048;8.732;2023-06-10T08:09:20;5.65;;;3.28;;
43744;SDS011;29359;53.048;8.732;2023-06-10T08:11:24;8.15;;;3.10;;
43744;SDS011;29359;53.048;8.732;2023-06-10T08:13:27;8.85;;;3.28;;
43744;SDS011;29359;53.048;8.732;2023-06-10T08:15:28;9.77;;;3.17;;
43744;SDS011;29359;53.048;8.732;2023-06-10T08:17:30;5.43;;;3.25;;
43744;SDS011;29359;53.048;8.732;2023-06-10T08:19:32;5.65;;;2.72;;
43744;SDS011;29359;53.048;8.732;2023-06-10T08:21:33;7.03;;;2.90;;
43744;SDS011;29359;53.048;8.732;2023-06-10T08:23:35;6.22;;;2.88;;
43744;SDS011;29359;53.048;8.732;2023-06-10T08:25:36;6.68;;;3.10;;
43744;SDS011;29359;53.048;8.732;2023-06-10T08:27:38;7.65;;;3.40;;
43744;SDS011;29359;53.048;8.732;2023-06-10T08:29:39;5.85;;;3.10;;
43744;SDS011;29359;53.048;8.732;2023-06-10T08:31:42;7.95;;;3.17;;
43744;SDS011;29359;53.048;8.732;2023-06-10T08:33:44;12.15;;;3.65;;
43744;SDS011;29359;53.048;8.732;2023-06-10T08:35:46;4.53;;;2.85;;
43744;SDS011;29359;53.048;8.732;2023-06-10T08:37:47;5.97;;;2.90;;
43744;SDS011;29359;53.048;8.732;2023-06-10T08:39:49;7.40;;;3.33;;
43744;SDS011;29359;53.048;8.732;2023-06-10T08:44:29;5.55;;;2.92;;
43744;SDS011;29359;53.048;8.732;2023-06-10T08:46:31;9.30;;;3.20;;
43744;SDS011;29359;53.048;8.732;2023-06-10T08:48:34;7.30;;;3.22;;
43744;SDS011;29359;53.048;8.732;2023-06-10T08:50:37;6.43;;;3.33;;
43744;SDS011;29359;53.048;8.732;2023-06-10T08:52:40;9.15;;;3.20;;
43744;SDS011;29359;53.048;8.732;2023-06-10T08:54:49;7.57;;;3.13;;
43744;SDS011;29359;53.048;8.732;2023-06-10T08:56:55;11.60;;;3.45;;
43744;SDS011;29359;53.048;8.732;2023-06-10T08:59:00;5.93;;;3.05;;
43744;SDS011;29359;53.048;8.732;2023-06-10T09:01:03;9.00;;;3.45;;
43744;SDS011;29359;53.048;8.732;2023-06-10T09:03:05;18.98;;;3.88;;
43744;SDS011;29359;53.048;8.732;2023-06-10T09:05:10;7.85;;;3.63;;
43744;SDS011;29359;53.048;8.732;2023-06-10T09:07:12;7.90;;;3.50;;
43744;SDS011;29359;53.048;8.732;2023-06-10T09:09:16;6.93;;;3.40;;
43744;SDS011;29359;53.048;8.732;2023-06-10T09:11:19;7.60;;;3.60;;
43744;SDS011;29359;53.048;8.732;2023-06-10T09:13:20;6.90;;;3.10;;
43744;SDS011;29359;53.048;8.732;2023-06-10T09:15:22;4.57;;;2.67;;
43744;SDS011;29359;53.048;8.732;2023-06-10T09:17:23;15.63;;;3.25;;
43744;SDS011;29359;53.048;8.732;2023-06-10T09:19:25;4.75;;;2.70;;
43744;SDS011;29359;53.048;8.732;2023-06-10T09:21:28;8.38;;;3.08;;
43744;SDS011;29359;53.048;8.732;2023-06-10T09:23:29;5.57;;;2.58;;
43744;SDS011;29359;53.048;8.732;2023-06-10T09:25:36;5.03;;;3.00;;
43744;SDS011;29359;53.048;8.732;2023-06-10T09:27:48;7.40;;;2.53;;
43744;SDS011;29359;53.048;8.732;2023-06-10T09:29:55;10.07;;;3.40;;
43744;SDS011;29359;53.048;8.732;2023-06-10T09:31:57;7.55;;;2.30;;
43744;SDS011;29359;53.048;8.732;2023-06-10T09:34:09;4.35;;;2.45;;
43744;SDS011;29359;53.048;8.732;2023-06-10T09:36:12;4.72;;;2.50;;
43744;SDS011;29359;53.048;8.732;2023-06-10T09:38:23;5.82;;;2.78;;
43744;SDS011;29359;53.048;8.732;2023-06-10T09:40:31;7.85;;;2.47;;
43744;SDS011;29359;53.048;8.732;2023-06-10T09:42:33;8.90;;;2.72;;
43744;SDS011;29359;53.048;8.732;2023-06-10T09:44:36;5.55;;;2.85;;
43744;SDS011;29359;53.048;8.732;2023-06-10T09:46:40;9.70;;;3.20;;
43744;SDS011;29359;53.048;8.732;2023-06-10T09:48:43;4.20;;;2.50;;
43744;SDS011;29359;53.048;8.732;2023-06-10T09:50:46;5.82;;;2.70;;
43744;SDS011;29359;53.048;8.732;2023-06-10T09:52:48;6.88;;;2.63;;
43744;SDS011;29359;53.048;8.732;2023-06-10T09:54:53;7.70;;;3.03;;
43744;SDS011;29359;53.048;8.732;2023-06-10T09:56:55;3.83;;;2.33;;
43744;SDS011;29359;53.048;8.732;2023-06-10T09:58:57;4.15;;;2.72;;
43744;SDS011;29359;53.048;8.732;2023-06-10T10:00:59;5.22;;;2.58;;
43744;SDS011;29359;53.048;8.732;2023-06-10T10:03:01;4.57;;;2.20;;
43744;SDS011;29359;53.048;8.732;2023-06-10T10:05:03;5.90;;;2.83;;
43744;SDS011;29359;53.048;8.732;2023-06-10T10:07:08;3.85;;;2.40;;
43744;SDS011;29359;53.048;8.732;2023-06-10T10:09:10;11.27;;;2.80;;
43744;SDS011;29359;53.048;8.732;2023-06-10T10:11:12;6.60;;;2.78;;
43744;SDS011;29359;53.048;8.732;2023-06-10T10:13:19;5.00;;;2.60;;
43744;SDS011;29359;53.048;8.732;2023-06-10T10:15:20;5.47;;;2.55;;
43744;SDS011;29359;53.048;8.732;2023-06-10T10:17:23;8.18;;;2.47;;
43744;SDS011;29359;53.048;8.732;2023-06-10T10:19:30;6.80;;;2.53;;
43744;SDS011;29359;53.048;8.732;2023-06-10T10:21:35;5.28;;;2.30;;
43744;SDS011;29359;53.048;8.732;2023-06-10T10:26:03;4.60;;;2.28;;
43744;SDS011;29359;53.048;8.732;2023-06-10T10:28:11;8.45;;;2.53;;
43744;SDS011;29359;53.048;8.732;2023-06-10T10:30:14;7.22;;;2.60;;
43744;SDS011;29359;53.048;8.732;2023-06-10T10:32:18;6.82;;;2.92;;
43744;SDS011;29359;53.048;8.732;2023-06-10T10:36:35;3.42;;;2.00;;
43744;SDS011;29359;53.048;8.732;2023-06-10T10:38:38;3.83;;;2.15;;
43744;SDS011;29359;53.048;8.732;2023-06-10T10:40:40;4.00;;;1.90;;
43744;SDS011;29359;53.048;8.732;2023-06-10T10:42:42;6.25;;;2.40;;
43744;SDS011;29359;53.048;8.732;2023-06-10T10:44:44;6.47;;;2.45;;
43744;SDS011;29359;53.048;8.732;2023-06-10T10:46:50;2.95;;;1.90;;
43744;SDS011;29359;53.048;8.732;2023-06-10T10:48:53;5.95;;;2.40;;
43744;SDS011;29359;53.048;8.732;2023-06-10T10:50:57;3.45;;;1.95;;
43744;SDS011;29359;53.048;8.732;2023-06-10T10:53:00;4.95;;;2.30;;
43744;SDS011;29359;53.048;8.732;2023-06-10T10:55:03;4.43;;;2.00;;
43744;SDS011;29359;53.048;8.732;2023-06-10T10:57:17;5.05;;;2.00;;
43744;SDS011;29359;53.048;8.732;2023-06-10T10:59:20;4.75;;;2.10;;
43744;SDS011;29359;53.048;8.732;2023-06-10T11:01:22;4.15;;;1.92;;
43744;SDS011;29359;53.048;8.732;2023-06-10T11:03:28;3.67;;;2.00;;
43744;SDS011;29359;53.048;8.732;2023-06-10T11:05:44;4.20;;;2.20;;
43744;SDS011;29359;53.048;8.732;2023-06-10T11:07:52;4.35;;;2.35;;
43744;SDS011;29359;53.048;8.732;2023-06-10T11:10:09;8.13;;;2.42;;
43744;SDS011;29359;53.048;8.732;2023-06-10T11:12:12;4.80;;;1.92;;
43744;SDS011;29359;53.048;8.732;2023-06-10T11:14:27;4.50;;;1.92;;
43744;SDS011;29359;53.048;8.732;2023-06-10T11:16:29;2.80;;;1.92;;
43744;SDS011;29359;53.048;8.732;2023-06-10T11:18:38;5.55;;;2.33;;
43744;SDS011;29359;53.048;8.732;2023-06-10T11:23:00;6.78;;;2.40;;
43744;SDS011;29359;53.048;8.732;2023-06-10T11:25:03;3.10;;;1.75;;
43744;SDS011;29359;53.048;8.732;2023-06-10T11:27:23;3.75;;;1.90;;
43744;SDS011;29359;53.048;8.732;2023-06-10T11:29:29;2.63;;;1.73;;
43744;SDS011;29359;53.048;8.732;2023-06-10T11:31:31;3.67;;;2.05;;
43744;SDS011;29359;53.048;8.732;2023-06-10T11:33:37;5.18;;;2.00;;
43744;SDS011;29359;53.048;8.732;2023-06-10T11:35:39;7.97;;;2.08;;
43744;SDS011;29359;53.048;8.732;2023-06-10T11:37:41;4.30;;;1.70;;
43744;SDS011;29359;53.048;8.732;2023-06-10T11:39:43;4.65;;;1.52;;
43744;SDS011;29359;53.048;8.732;2023-06-10T11:41:45;4.43;;;1.85;;
43744;SDS011;29359;53.048;8.732;2023-06-10T11:43:47;3.70;;;1.90;;
43744;SDS011;29359;53.048;8.732;2023-06-10T11:45:53;3.83;;;1.73;;
43744;SDS011;29359;53.048;8.732;2023-06-10T11:47:58;6.40;;;3.10;;
43744;SDS011;29359;53.048;8.732;2023-06-10T11:50:01;6.82;;;2.13;;
43744;SDS011;29359;53.048;8.732;2023-06-10T11:52:04;3.47;;;2.00;;
43744;SDS011;29359;53.048;8.732;2023-06-10T11:54:07;1.83;;;1.55;;
43744;SDS011;29359;53.048;8.732;2023-06-10T11:56:10;2.50;;;1.30;;
43744;SDS011;29359;53.048;8.732;2023-06-10T11:58:18;4.25;;;2.70;;
43744;SDS011;29359;53.048;8.732;2023-06-10T12:00:21;7.60;;;1.30;;
43744;SDS011;29359;53.048;8.732;2023-06-10T12:02:22;6.78;;;2.28;;
43744;SDS011;29359;53.048;8.732;2023-06-10T12:04:24;9.75;;;1.77;;
43744;SDS011;29359;53.048;8.732;2023-06-10T12:06:27;2.90;;;1.80;;
43744;SDS011;29359;53.048;8.732;2023-06-10T12:08:41;2.25;;;1.63;;
43744;SDS011;29359;53.048;8.732;2023-06-10T12:10:44;7.03;;;3.15;;
43744;SDS011;29359;53.048;8.732;2023-06-10T12:12:45;3.38;;;1.77;;
43744;SDS011;29359;53.048;8.732;2023-06-10T12:16:57;6.47;;;3.13;;
43744;SDS011;29359;53.048;8.732;2023-06-10T12:19:04;5.30;;;1.38;;
43744;SDS011;29359;53.048;8.732;2023-06-10T12:21:16;3.45;;;1.98;;
43744;SDS011;29359;53.048;8.732;2023-06-10T12:23:19;2.83;;;1.60;;
43744;SDS011;29359;53.048;8.732;2023-06-10T12:25:24;2.00;;;1.40;;
43744;SDS011;29359;53.048;8.732;2023-06-10T12:27:28;8.85;;;1.77;;
43744;SDS011;29359;53.048;8.732;2023-06-10T12:29:33;3.17;;;1.48;;
43744;SDS011;29359;53.048;8.732;2023-06-10T12:31:51;3.03;;;1.33;;
43744;SDS011;29359;53.048;8.732;2023-06-10T12:34:07;2.30;;;1.40;;